MTN324 KMFR-KSLC
Flight info
| Callsign | MTN324 |
|---|---|
| Flight time | 1h 24m |
| Altitude | 35000 |
| Route | JKSN1 OED V122 LMT SUNBE BVL YUTES2 |
| Aircraft | E75L/M-SDE3GILORVW/S |
Departure
| Time | 2026-05-03 21:16 |
|---|---|
| Airport | Rogue Valley International-Medford Airport (KMFR) |
Arrival
| Time | 2026-05-03 22:40 |
|---|---|
| Airport | Salt Lake City International Airport (KSLC) |
| Time | Latitude | Longitude | Altitude | Speed | Heading |
|---|---|---|---|---|---|
| 2026-05-03 21:00 | 42.36832 | -122.87303 | 1323 ft | 0 kts | 247° |
| 2026-05-03 21:10 | 42.36832 | -122.87302 | 1323 ft | 2 kts | 247° |
| 2026-05-03 21:11 | 42.36842 | -122.87270 | 1323 ft | 4 kts | 249° |
| 2026-05-03 21:11 | 42.36851 | -122.87236 | 1323 ft | 4 kts | 249° |
| 2026-05-03 21:11 | 42.36861 | -122.87202 | 1323 ft | 4 kts | 246° |
| 2026-05-03 21:11 | 42.36875 | -122.87172 | 1323 ft | 4 kts | 214° |
| 2026-05-03 21:12 | 42.36886 | -122.87169 | 1323 ft | 0 kts | 159° |
| 2026-05-03 21:13 | 42.36881 | -122.87166 | 1323 ft | 3 kts | 159° |
| 2026-05-03 21:14 | 42.36846 | -122.87148 | 1323 ft | 8 kts | 159° |
| 2026-05-03 21:14 | 42.36775 | -122.87111 | 1323 ft | 13 kts | 158° |
| 2026-05-03 21:14 | 42.36685 | -122.87061 | 1323 ft | 15 kts | 158° |
| 2026-05-03 21:14 | 42.36582 | -122.87007 | 1323 ft | 17 kts | 159° |
| 2026-05-03 21:15 | 42.36476 | -122.86953 | 1328 ft | 15 kts | 160° |
| 2026-05-03 21:15 | 42.36381 | -122.86903 | 1333 ft | 13 kts | 151° |
| 2026-05-03 21:15 | 42.36367 | -122.86808 | 1339 ft | 11 kts | 69° |
| 2026-05-03 21:15 | 42.36396 | -122.86758 | 1335 ft | 5 kts | 1° |
| 2026-05-03 21:16 | 42.36421 | -122.86767 | 1334 ft | 0 kts | 340° |
| 2026-05-03 21:16 | 42.36641 | -122.86882 | 1331 ft | 76 kts | 339° |
| 2026-05-03 21:16 | 42.37394 | -122.87276 | 1322 ft | 153 kts | 338° |
| 2026-05-03 21:16 | 42.38473 | -122.87835 | 1994 ft | 170 kts | 340° |
| 2026-05-03 21:17 | 42.39635 | -122.88450 | 2753 ft | 190 kts | 338° |
| 2026-05-03 21:17 | 42.40491 | -122.88907 | 3290 ft | 201 kts | 339° |
| 2026-05-03 21:17 | 42.42348 | -122.89678 | 4328 ft | 219 kts | 351° |
| 2026-05-03 21:17 | 42.43888 | -122.90039 | 5335 ft | 229 kts | 350° |
| 2026-05-03 21:18 | 42.45576 | -122.90253 | 6048 ft | 256 kts | 8° |
| 2026-05-03 21:18 | 42.47288 | -122.89387 | 6860 ft | 273 kts | 37° |
| 2026-05-03 21:18 | 42.48575 | -122.87474 | 7892 ft | 278 kts | 61° |
| 2026-05-03 21:18 | 42.49161 | -122.85027 | 9033 ft | 280 kts | 85° |
| 2026-05-03 21:19 | 42.48905 | -122.82428 | 10134 ft | 282 kts | 110° |
| 2026-05-03 21:19 | 42.47821 | -122.80145 | 10836 ft | 299 kts | 134° |
| 2026-05-03 21:19 | 42.46233 | -122.78232 | 11545 ft | 313 kts | 139° |
| 2026-05-03 21:19 | 42.44534 | -122.76299 | 12337 ft | 323 kts | 139° |
| 2026-05-03 21:20 | 42.42753 | -122.74369 | 13292 ft | 329 kts | 141° |
| 2026-05-03 21:20 | 42.40960 | -122.72417 | 14255 ft | 332 kts | 134° |
| 2026-05-03 21:20 | 42.39606 | -122.69887 | 15248 ft | 333 kts | 117° |
| 2026-05-03 21:20 | 42.38546 | -122.67073 | 16233 ft | 337 kts | 115° |
| 2026-05-03 21:21 | 42.37517 | -122.64260 | 17190 ft | 340 kts | 115° |
| 2026-05-03 21:21 | 42.36476 | -122.61362 | 18107 ft | 344 kts | 114° |
| 2026-05-03 21:21 | 42.35402 | -122.58450 | 18900 ft | 348 kts | 116° |
| 2026-05-03 21:21 | 42.34276 | -122.55518 | 19684 ft | 354 kts | 116° |
| 2026-05-03 21:22 | 42.33139 | -122.52545 | 20488 ft | 358 kts | 116° |
| 2026-05-03 21:22 | 42.31988 | -122.49536 | 21232 ft | 362 kts | 116° |
| 2026-05-03 21:22 | 42.30824 | -122.46493 | 21931 ft | 365 kts | 116° |
| 2026-05-03 21:22 | 42.29649 | -122.43424 | 22600 ft | 369 kts | 116° |
| 2026-05-03 21:23 | 42.28460 | -122.40330 | 23281 ft | 373 kts | 116° |
| 2026-05-03 21:23 | 42.27255 | -122.37204 | 23854 ft | 377 kts | 116° |
| 2026-05-03 21:23 | 42.26036 | -122.34042 | 24410 ft | 381 kts | 116° |
| 2026-05-03 21:23 | 42.24828 | -122.30899 | 24964 ft | 384 kts | 116° |
| 2026-05-03 21:24 | 42.23632 | -122.27663 | 25539 ft | 386 kts | 111° |
| 2026-05-03 21:24 | 42.22959 | -122.24157 | 26153 ft | 385 kts | 99° |
| 2026-05-03 21:24 | 42.22356 | -122.20592 | 26424 ft | 395 kts | 103° |
| 2026-05-03 21:24 | 42.21807 | -122.16924 | 26890 ft | 399 kts | 99° |
| 2026-05-03 21:25 | 42.21321 | -122.13236 | 27556 ft | 398 kts | 100° |
| 2026-05-03 21:25 | 42.20827 | -122.09574 | 28281 ft | 396 kts | 100° |
| 2026-05-03 21:25 | 42.20326 | -122.05925 | 28956 ft | 395 kts | 100° |
| 2026-05-03 21:25 | 42.19825 | -122.02295 | 29618 ft | 393 kts | 100° |
| 2026-05-03 21:26 | 42.19322 | -121.98661 | 30218 ft | 393 kts | 100° |
| 2026-05-03 21:26 | 42.18821 | -121.95047 | 30741 ft | 392 kts | 101° |
| 2026-05-03 21:26 | 42.18316 | -121.91431 | 31266 ft | 392 kts | 101° |
| 2026-05-03 21:26 | 42.17812 | -121.87828 | 31779 ft | 391 kts | 101° |
| 2026-05-03 21:27 | 42.17315 | -121.84274 | 32261 ft | 390 kts | 101° |
| 2026-05-03 21:27 | 42.16811 | -121.80687 | 32718 ft | 389 kts | 101° |
| 2026-05-03 21:27 | 42.16306 | -121.77102 | 33184 ft | 389 kts | 101° |
| 2026-05-03 21:27 | 42.15801 | -121.73523 | 33619 ft | 388 kts | 101° |
| 2026-05-03 21:28 | 42.15296 | -121.69955 | 34055 ft | 387 kts | 101° |
| 2026-05-03 21:28 | 42.14790 | -121.66392 | 34407 ft | 387 kts | 101° |
| 2026-05-03 21:28 | 42.14282 | -121.62822 | 34769 ft | 387 kts | 101° |
| 2026-05-03 21:28 | 42.13775 | -121.59271 | 35104 ft | 387 kts | 101° |
| 2026-05-03 21:29 | 42.12738 | -121.52014 | 35072 ft | 400 kts | 101° |
| 2026-05-03 21:29 | 42.11667 | -121.44557 | 35074 ft | 410 kts | 101° |
| 2026-05-03 21:30 | 42.10559 | -121.36888 | 34933 ft | 423 kts | 101° |
| 2026-05-03 21:30 | 42.09429 | -121.29102 | 34913 ft | 430 kts | 101° |
| 2026-05-03 21:31 | 42.08273 | -121.21175 | 34902 ft | 432 kts | 101° |
| 2026-05-03 21:31 | 42.07108 | -121.13232 | 34905 ft | 433 kts | 101° |
| 2026-05-03 21:32 | 42.05936 | -121.05278 | 34916 ft | 432 kts | 101° |
| 2026-05-03 21:32 | 42.04772 | -120.97404 | 34922 ft | 432 kts | 101° |
| 2026-05-03 21:33 | 42.03596 | -120.89489 | 34923 ft | 431 kts | 102° |
| 2026-05-03 21:33 | 42.02410 | -120.81561 | 34932 ft | 432 kts | 102° |
| 2026-05-03 21:34 | 42.01227 | -120.73647 | 34946 ft | 432 kts | 102° |
| 2026-05-03 21:34 | 42.00040 | -120.65718 | 34964 ft | 432 kts | 102° |
| 2026-05-03 21:35 | 41.98853 | -120.57842 | 34972 ft | 433 kts | 102° |
| 2026-05-03 21:35 | 41.97642 | -120.49904 | 34982 ft | 433 kts | 102° |
| 2026-05-03 21:36 | 41.96434 | -120.41968 | 34983 ft | 433 kts | 102° |
| 2026-05-03 21:36 | 41.95224 | -120.34026 | 34976 ft | 433 kts | 102° |
| 2026-05-03 21:37 | 41.94010 | -120.26147 | 34970 ft | 432 kts | 102° |
| 2026-05-03 21:37 | 41.92788 | -120.18231 | 34957 ft | 432 kts | 102° |
| 2026-05-03 21:38 | 41.91561 | -120.10336 | 34939 ft | 432 kts | 102° |
| 2026-05-03 21:38 | 41.90315 | -120.02451 | 34929 ft | 431 kts | 102° |
| 2026-05-03 21:39 | 41.89079 | -119.94575 | 34923 ft | 430 kts | 102° |
| 2026-05-03 21:39 | 41.87849 | -119.86762 | 34926 ft | 431 kts | 102° |
| 2026-05-03 21:40 | 41.86614 | -119.78912 | 34927 ft | 430 kts | 102° |
| 2026-05-03 21:40 | 41.85349 | -119.71074 | 34923 ft | 429 kts | 102° |
| 2026-05-03 21:41 | 41.84090 | -119.63246 | 34921 ft | 429 kts | 103° |
| 2026-05-03 21:41 | 41.82830 | -119.55406 | 34919 ft | 430 kts | 102° |
| 2026-05-03 21:42 | 41.81574 | -119.47557 | 34924 ft | 430 kts | 103° |
| 2026-05-03 21:42 | 41.80301 | -119.39714 | 34921 ft | 430 kts | 103° |
| 2026-05-03 21:43 | 41.79011 | -119.31871 | 34922 ft | 430 kts | 103° |
| 2026-05-03 21:43 | 41.77720 | -119.24034 | 34917 ft | 431 kts | 103° |
| 2026-05-03 21:44 | 41.76434 | -119.16220 | 34914 ft | 431 kts | 103° |
| 2026-05-03 21:44 | 41.75134 | -119.08367 | 34908 ft | 432 kts | 103° |
| 2026-05-03 21:45 | 41.73845 | -119.00497 | 34910 ft | 433 kts | 103° |
| 2026-05-03 21:45 | 41.72546 | -118.92604 | 34900 ft | 433 kts | 103° |
| 2026-05-03 21:46 | 41.71240 | -118.84794 | 34896 ft | 433 kts | 103° |
| 2026-05-03 21:46 | 41.69907 | -118.76930 | 34890 ft | 433 kts | 103° |
| 2026-05-03 21:47 | 41.68575 | -118.69046 | 34632 ft | 435 kts | 103° |
| 2026-05-03 21:47 | 41.67907 | -118.65110 | 34419 ft | 434 kts | 103° |
| 2026-05-03 21:47 | 41.67257 | -118.61162 | 34209 ft | 434 kts | 103° |
| 2026-05-03 21:48 | 41.66601 | -118.57210 | 34010 ft | 434 kts | 103° |
| 2026-05-03 21:48 | 41.65924 | -118.53271 | 33802 ft | 435 kts | 104° |
| 2026-05-03 21:48 | 41.65236 | -118.49329 | 33576 ft | 435 kts | 103° |
| 2026-05-03 21:48 | 41.64571 | -118.45425 | 33342 ft | 436 kts | 103° |
| 2026-05-03 21:49 | 41.63883 | -118.41464 | 33117 ft | 436 kts | 103° |
| 2026-05-03 21:49 | 41.63183 | -118.37501 | 32893 ft | 437 kts | 104° |
| 2026-05-03 21:49 | 41.61815 | -118.29596 | 32858 ft | 437 kts | 103° |
| 2026-05-03 21:50 | 41.60463 | -118.21668 | 32852 ft | 437 kts | 103° |
| 2026-05-03 21:50 | 41.59080 | -118.13792 | 32855 ft | 438 kts | 104° |
| 2026-05-03 21:51 | 41.57663 | -118.05862 | 32856 ft | 439 kts | 103° |
| 2026-05-03 21:51 | 41.56271 | -117.97910 | 32851 ft | 439 kts | 103° |
| 2026-05-03 21:52 | 41.54887 | -117.89971 | 32853 ft | 439 kts | 104° |
| 2026-05-03 21:52 | 41.53496 | -117.82035 | 32861 ft | 439 kts | 104° |
| 2026-05-03 21:53 | 41.52317 | -117.75444 | 32858 ft | 439 kts | 104° |
| 2026-05-03 21:53 | 41.50643 | -117.66230 | 32860 ft | 439 kts | 105° |
| 2026-05-03 21:54 | 41.49402 | -117.59661 | 32872 ft | 439 kts | 104° |
| 2026-05-03 21:54 | 41.47953 | -117.51760 | 32872 ft | 439 kts | 104° |
| 2026-05-03 21:55 | 41.46518 | -117.43827 | 32871 ft | 439 kts | 104° |
| 2026-05-03 21:55 | 41.45068 | -117.35911 | 32867 ft | 439 kts | 104° |
| 2026-05-03 21:56 | 41.43676 | -117.28027 | 32874 ft | 440 kts | 105° |
| 2026-05-03 21:56 | 41.42181 | -117.20120 | 32864 ft | 440 kts | 105° |
| 2026-05-03 21:57 | 41.40733 | -117.12191 | 32862 ft | 441 kts | 104° |
| 2026-05-03 21:57 | 41.39291 | -117.04255 | 32868 ft | 440 kts | 104° |
| 2026-05-03 21:58 | 41.37829 | -116.96339 | 32864 ft | 441 kts | 105° |
| 2026-05-03 21:58 | 41.36342 | -116.88428 | 32868 ft | 440 kts | 105° |
| 2026-05-03 21:59 | 41.34867 | -116.80580 | 32866 ft | 439 kts | 105° |
| 2026-05-03 21:59 | 41.33399 | -116.72695 | 32870 ft | 438 kts | 105° |
| 2026-05-03 22:00 | 41.31907 | -116.64809 | 32872 ft | 439 kts | 105° |
| 2026-05-03 22:00 | 41.30414 | -116.56974 | 32870 ft | 440 kts | 105° |
| 2026-05-03 22:01 | 41.28883 | -116.49038 | 32878 ft | 440 kts | 105° |
| 2026-05-03 22:01 | 41.27427 | -116.41189 | 32883 ft | 440 kts | 105° |
| 2026-05-03 22:02 | 41.25935 | -116.33306 | 32887 ft | 439 kts | 106° |
| 2026-05-03 22:02 | 41.24379 | -116.25446 | 32883 ft | 439 kts | 106° |
| 2026-05-03 22:03 | 41.22806 | -116.17597 | 32884 ft | 439 kts | 106° |
| 2026-05-03 22:03 | 41.21346 | -116.09699 | 32891 ft | 440 kts | 104° |
| 2026-05-03 22:04 | 41.19850 | -116.01829 | 32902 ft | 439 kts | 107° |
| 2026-05-03 22:04 | 41.18257 | -115.94048 | 32891 ft | 440 kts | 105° |
| 2026-05-03 22:05 | 41.16791 | -115.86168 | 32886 ft | 440 kts | 105° |
| 2026-05-03 22:05 | 41.15311 | -115.78300 | 32892 ft | 440 kts | 106° |
| 2026-05-03 22:06 | 41.13761 | -115.70444 | 32891 ft | 440 kts | 106° |
| 2026-05-03 22:06 | 41.12203 | -115.62582 | 32893 ft | 441 kts | 107° |
| 2026-05-03 22:07 | 41.10591 | -115.54733 | 32884 ft | 441 kts | 106° |
| 2026-05-03 22:07 | 41.08992 | -115.46879 | 32877 ft | 442 kts | 107° |
| 2026-05-03 22:08 | 41.07351 | -115.39084 | 32882 ft | 441 kts | 107° |
| 2026-05-03 22:08 | 41.05731 | -115.31235 | 32881 ft | 442 kts | 106° |
| 2026-05-03 22:09 | 41.04167 | -115.23339 | 32899 ft | 442 kts | 106° |
| 2026-05-03 22:10 | 41.01759 | -115.11515 | 32880 ft | 444 kts | 107° |
| 2026-05-03 22:10 | 41.00130 | -115.03625 | 32875 ft | 444 kts | 107° |
| 2026-05-03 22:11 | 40.98517 | -114.95785 | 32901 ft | 444 kts | 107° |
| 2026-05-03 22:11 | 40.96883 | -114.87883 | 32890 ft | 445 kts | 107° |
| 2026-05-03 22:12 | 40.95240 | -114.79976 | 32903 ft | 445 kts | 107° |
| 2026-05-03 22:12 | 40.93610 | -114.72072 | 32906 ft | 445 kts | 107° |
| 2026-05-03 22:13 | 40.91948 | -114.64169 | 32911 ft | 446 kts | 107° |
| 2026-05-03 22:13 | 40.90304 | -114.56315 | 32909 ft | 447 kts | 107° |
| 2026-05-03 22:14 | 40.88642 | -114.48382 | 32921 ft | 448 kts | 107° |
| 2026-05-03 22:14 | 40.86940 | -114.40459 | 32926 ft | 448 kts | 108° |
| 2026-05-03 22:15 | 40.85241 | -114.32520 | 32944 ft | 449 kts | 108° |
| 2026-05-03 22:15 | 40.83515 | -114.24594 | 32952 ft | 449 kts | 108° |
| 2026-05-03 22:16 | 40.81801 | -114.16637 | 32966 ft | 451 kts | 108° |
| 2026-05-03 22:16 | 40.80098 | -114.08713 | 32981 ft | 452 kts | 107° |
| 2026-05-03 22:17 | 40.78385 | -114.00704 | 32983 ft | 453 kts | 107° |
| 2026-05-03 22:17 | 40.76702 | -113.92799 | 32517 ft | 434 kts | 108° |
| 2026-05-03 22:17 | 40.75880 | -113.89037 | 32053 ft | 421 kts | 108° |
| 2026-05-03 22:18 | 40.75082 | -113.85352 | 31457 ft | 414 kts | 107° |
| 2026-05-03 22:18 | 40.74288 | -113.81727 | 30870 ft | 408 kts | 108° |
| 2026-05-03 22:18 | 40.73493 | -113.78164 | 30329 ft | 401 kts | 108° |
| 2026-05-03 22:18 | 40.72876 | -113.74556 | 29774 ft | 421 kts | 98° |
| 2026-05-03 22:19 | 40.72596 | -113.70632 | 29179 ft | 433 kts | 94° |
| 2026-05-03 22:19 | 40.72493 | -113.66641 | 28586 ft | 437 kts | 92° |
| 2026-05-03 22:19 | 40.72474 | -113.62625 | 27994 ft | 439 kts | 91° |
| 2026-05-03 22:19 | 40.72480 | -113.58598 | 27403 ft | 438 kts | 91° |
| 2026-05-03 22:20 | 40.72481 | -113.54593 | 26813 ft | 435 kts | 91° |
| 2026-05-03 22:20 | 40.72484 | -113.50623 | 26236 ft | 431 kts | 91° |
| 2026-05-03 22:20 | 40.72485 | -113.46680 | 25657 ft | 428 kts | 91° |
| 2026-05-03 22:20 | 40.72487 | -113.42763 | 25100 ft | 425 kts | 91° |
| 2026-05-03 22:21 | 40.72476 | -113.38914 | 24545 ft | 423 kts | 91° |
| 2026-05-03 22:21 | 40.72465 | -113.35049 | 23960 ft | 420 kts | 91° |
| 2026-05-03 22:21 | 40.72462 | -113.31206 | 23397 ft | 417 kts | 91° |
| 2026-05-03 22:21 | 40.72455 | -113.27402 | 22849 ft | 412 kts | 91° |
| 2026-05-03 22:22 | 40.72448 | -113.23639 | 22312 ft | 409 kts | 91° |
| 2026-05-03 22:22 | 40.72439 | -113.19916 | 21758 ft | 400 kts | 91° |
| 2026-05-03 22:22 | 40.72430 | -113.16299 | 21238 ft | 389 kts | 92° |
| 2026-05-03 22:22 | 40.72415 | -113.12783 | 20726 ft | 379 kts | 92° |
| 2026-05-03 22:23 | 40.72398 | -113.09349 | 20234 ft | 370 kts | 92° |
| 2026-05-03 22:23 | 40.72381 | -113.06025 | 19747 ft | 362 kts | 92° |
| 2026-05-03 22:23 | 40.72365 | -113.02735 | 19282 ft | 355 kts | 92° |
| 2026-05-03 22:23 | 40.72346 | -112.99502 | 18806 ft | 349 kts | 92° |
| 2026-05-03 22:24 | 40.72324 | -112.96321 | 18352 ft | 344 kts | 92° |
| 2026-05-03 22:24 | 40.72304 | -112.93198 | 17942 ft | 336 kts | 92° |
| 2026-05-03 22:24 | 40.72280 | -112.90141 | 17499 ft | 331 kts | 92° |
| 2026-05-03 22:24 | 40.72259 | -112.87134 | 17143 ft | 325 kts | 92° |
| 2026-05-03 22:25 | 40.72238 | -112.84197 | 16967 ft | 319 kts | 92° |
| 2026-05-03 22:25 | 40.72214 | -112.81273 | 16917 ft | 321 kts | 93° |
| 2026-05-03 22:25 | 40.72188 | -112.78306 | 16937 ft | 326 kts | 92° |
| 2026-05-03 22:25 | 40.72162 | -112.75304 | 16922 ft | 328 kts | 92° |
| 2026-05-03 22:26 | 40.72136 | -112.72294 | 16932 ft | 328 kts | 92° |
| 2026-05-03 22:26 | 40.72107 | -112.69279 | 16944 ft | 329 kts | 92° |
| 2026-05-03 22:26 | 40.72081 | -112.66299 | 16954 ft | 329 kts | 92° |
| 2026-05-03 22:26 | 40.72054 | -112.63277 | 16956 ft | 329 kts | 92° |
| 2026-05-03 22:27 | 40.72026 | -112.60257 | 16963 ft | 329 kts | 92° |
| 2026-05-03 22:27 | 40.71993 | -112.57244 | 16957 ft | 329 kts | 93° |
| 2026-05-03 22:27 | 40.71963 | -112.54212 | 16774 ft | 333 kts | 91° |
| 2026-05-03 22:27 | 40.72249 | -112.51184 | 16558 ft | 331 kts | 81° |
| 2026-05-03 22:28 | 40.72721 | -112.48220 | 16227 ft | 332 kts | 79° |
| 2026-05-03 22:28 | 40.73225 | -112.45246 | 15750 ft | 331 kts | 79° |
| 2026-05-03 22:28 | 40.73724 | -112.42296 | 15288 ft | 328 kts | 79° |
| 2026-05-03 22:28 | 40.74213 | -112.39375 | 14852 ft | 324 kts | 79° |
| 2026-05-03 22:29 | 40.74694 | -112.36489 | 14430 ft | 320 kts | 79° |
| 2026-05-03 22:29 | 40.75167 | -112.33637 | 14007 ft | 317 kts | 79° |
| 2026-05-03 22:29 | 40.75633 | -112.30811 | 13568 ft | 314 kts | 79° |
| 2026-05-03 22:29 | 40.76071 | -112.28008 | 13153 ft | 310 kts | 81° |
| 2026-05-03 22:30 | 40.76381 | -112.25208 | 12745 ft | 308 kts | 83° |
| 2026-05-03 22:30 | 40.76684 | -112.22419 | 12338 ft | 306 kts | 83° |
| 2026-05-03 22:30 | 40.76977 | -112.19662 | 12131 ft | 300 kts | 86° |
| 2026-05-03 22:30 | 40.76754 | -112.16964 | 12074 ft | 296 kts | 111° |
| 2026-05-03 22:31 | 40.75948 | -112.14462 | 12069 ft | 299 kts | 116° |
| 2026-05-03 22:31 | 40.75075 | -112.12001 | 11973 ft | 295 kts | 120° |
| 2026-05-03 22:31 | 40.73818 | -112.09961 | 11508 ft | 281 kts | 147° |
| 2026-05-03 22:31 | 40.72125 | -112.08973 | 11357 ft | 260 kts | 169° |
| 2026-05-03 22:32 | 40.70352 | -112.08660 | 11191 ft | 254 kts | 175° |
| 2026-05-03 22:32 | 40.68621 | -112.08412 | 11053 ft | 246 kts | 176° |
| 2026-05-03 22:32 | 40.66949 | -112.08229 | 10861 ft | 236 kts | 176° |
| 2026-05-03 22:32 | 40.65368 | -112.08054 | 10758 ft | 219 kts | 176° |
| 2026-05-03 22:33 | 40.63888 | -112.07888 | 10711 ft | 209 kts | 176° |
| 2026-05-03 22:33 | 40.62469 | -112.07732 | 10679 ft | 206 kts | 176° |
| 2026-05-03 22:33 | 40.61035 | -112.07568 | 10625 ft | 208 kts | 176° |
| 2026-05-03 22:33 | 40.59584 | -112.07404 | 10452 ft | 211 kts | 176° |
| 2026-05-03 22:34 | 40.58125 | -112.07238 | 10251 ft | 210 kts | 176° |
| 2026-05-03 22:34 | 40.56695 | -112.06873 | 10053 ft | 209 kts | 160° |
| 2026-05-03 22:34 | 40.55454 | -112.05858 | 9795 ft | 213 kts | 138° |
| 2026-05-03 22:34 | 40.54590 | -112.04266 | 9443 ft | 216 kts | 115° |
| 2026-05-03 22:35 | 40.54264 | -112.02362 | 9189 ft | 215 kts | 92° |
| 2026-05-03 22:35 | 40.54514 | -112.00433 | 8913 ft | 216 kts | 69° |
| 2026-05-03 22:35 | 40.55320 | -111.98775 | 8610 ft | 216 kts | 45° |
| 2026-05-03 22:35 | 40.56521 | -111.97661 | 8327 ft | 214 kts | 23° |
| 2026-05-03 22:36 | 40.57953 | -111.97241 | 8046 ft | 211 kts | 359° |
| 2026-05-03 22:36 | 40.59410 | -111.97364 | 7787 ft | 208 kts | 353° |
| 2026-05-03 22:36 | 40.60852 | -111.97565 | 7482 ft | 208 kts | 353° |
| 2026-05-03 22:36 | 40.62282 | -111.97755 | 7209 ft | 204 kts | 353° |
| 2026-05-03 22:37 | 40.63668 | -111.97925 | 6981 ft | 197 kts | 353° |
| 2026-05-03 22:37 | 40.65029 | -111.98088 | 6706 ft | 194 kts | 354° |
| 2026-05-03 22:37 | 40.66333 | -111.98243 | 6510 ft | 181 kts | 354° |
| 2026-05-03 22:37 | 40.67561 | -111.98389 | 6239 ft | 174 kts | 355° |
| 2026-05-03 22:38 | 40.68754 | -111.98527 | 5941 ft | 167 kts | 356° |
| 2026-05-03 22:38 | 40.69868 | -111.98658 | 5706 ft | 156 kts | 356° |
| 2026-05-03 22:38 | 40.70929 | -111.98778 | 5474 ft | 151 kts | 356° |
| 2026-05-03 22:38 | 40.71969 | -111.98886 | 5311 ft | 151 kts | 356° |
| 2026-05-03 22:39 | 40.73017 | -111.98995 | 5177 ft | 151 kts | 355° |
| 2026-05-03 22:39 | 40.74072 | -111.99106 | 4962 ft | 153 kts | 353° |
| 2026-05-03 22:39 | 40.75120 | -111.99255 | 4724 ft | 151 kts | 352° |
| 2026-05-03 22:39 | 40.76161 | -111.99379 | 4511 ft | 149 kts | 352° |
| 2026-05-03 22:40 | 40.77189 | -111.99511 | 4334 ft | 149 kts | 353° |
| 2026-05-03 22:40 | 40.78207 | -111.99628 | 4240 ft | 144 kts | 352° |
| 2026-05-03 22:40 | 40.79107 | -111.99737 | 4230 ft | 106 kts | 356° |
| 2026-05-03 22:40 | 40.79571 | -111.99789 | 4227 ft | 33 kts | 354° |
| 2026-05-03 22:41 | 40.79749 | -111.99759 | 4228 ft | 19 kts | 19° |
| 2026-05-03 22:41 | 40.79838 | -111.99668 | 4229 ft | 14 kts | 72° |
| 2026-05-03 22:41 | 40.79810 | -111.99600 | 4229 ft | 13 kts | 146° |
| 2026-05-03 22:41 | 40.79710 | -111.99587 | 4229 ft | 15 kts | 176° |
| 2026-05-03 22:42 | 40.79573 | -111.99572 | 4229 ft | 23 kts | 175° |
| 2026-05-03 22:42 | 40.79462 | -111.99560 | 4229 ft | 24 kts | 176° |
| 2026-05-03 22:42 | 40.79290 | -111.99539 | 4229 ft | 25 kts | 174° |
| 2026-05-03 22:42 | 40.79111 | -111.99518 | 4229 ft | 26 kts | 174° |
| 2026-05-03 22:43 | 40.78933 | -111.99497 | 4229 ft | 25 kts | 174° |
| 2026-05-03 22:43 | 40.78794 | -111.99481 | 4230 ft | 17 kts | 175° |
| 2026-05-03 22:43 | 40.78722 | -111.99450 | 4229 ft | 8 kts | 113° |
| 2026-05-03 22:43 | 40.78720 | -111.99360 | 4229 ft | 12 kts | 85° |
| 2026-05-03 22:44 | 40.78725 | -111.99239 | 4229 ft | 15 kts | 89° |
| 2026-05-03 22:44 | 40.78733 | -111.99098 | 4229 ft | 16 kts | 84° |
| 2026-05-03 22:44 | 40.78745 | -111.99007 | 4229 ft | 7 kts | 46° |
| 2026-05-03 22:44 | 40.78793 | -111.99000 | 4229 ft | 6 kts | 354° |
| 2026-05-03 22:45 | 40.78809 | -111.99002 | 4229 ft | 2 kts | 355° |
| 2026-05-03 22:45 | 40.78814 | -111.99003 | 4229 ft | 0 kts | 355° |